createdAt,value
2018-12-23T02:46:37.803Z,8.92
2018-12-23T02:47:37.793Z,8.98
2018-12-23T02:48:37.766Z,8.87
2018-12-23T02:49:37.756Z,8.91
2018-12-23T02:50:37.747Z,8.95
2018-12-23T02:51:37.735Z,8.92
2018-12-23T02:52:37.744Z,8.96
2018-12-23T02:53:37.718Z,8.96
2018-12-23T02:54:37.723Z,8.95
2018-12-23T02:55:37.695Z,8.96
2018-12-23T02:56:37.683Z,8.86
2018-12-23T02:57:37.693Z,8.99
2018-12-23T02:58:37.712Z,8.96
2018-12-23T02:59:37.655Z,8.99
2018-12-23T03:00:37.680Z,8.87
2018-12-23T03:01:37.632Z,8.99
2018-12-23T03:02:37.675Z,8.94
2018-12-23T03:03:37.610Z,8.86
2018-12-23T03:04:37.618Z,8.87
2018-12-23T03:05:37.590Z,8.80
2018-12-23T03:06:37.576Z,8.81
2018-12-23T03:07:37.584Z,8.84
2018-12-23T03:08:37.562Z,8.92
2018-12-23T03:09:37.547Z,8.84
2018-12-23T03:10:37.545Z,8.87
2018-12-23T03:11:37.523Z,8.86
2018-12-23T03:12:37.536Z,8.84
2018-12-23T03:13:37.504Z,8.89
2018-12-23T03:14:37.538Z,8.98
2018-12-23T03:15:37.488Z,8.86
2018-12-23T03:16:37.471Z,8.84
2018-12-23T03:17:37.479Z,8.81
2018-12-23T03:18:37.447Z,8.86
2018-12-23T03:19:37.491Z,8.81
2018-12-23T03:20:37.434Z,8.80
2018-12-23T03:21:37.416Z,8.83
2018-12-23T03:22:37.459Z,8.89
2018-12-23T03:23:37.395Z,8.80
2018-12-23T03:24:37.388Z,8.87
2018-12-23T03:25:37.375Z,8.81
2018-12-23T03:26:37.376Z,8.87
2018-12-23T03:27:37.390Z,8.83
2018-12-23T03:28:44.386Z,8.86
2018-12-23T03:29:37.329Z,8.76
2018-12-23T03:30:37.329Z,8.87
2018-12-23T03:31:37.316Z,8.89
2018-12-23T03:32:37.323Z,8.73
2018-12-23T03:33:37.288Z,8.86
2018-12-23T03:34:37.276Z,8.84
2018-12-23T03:35:37.268Z,8.81
2018-12-23T03:36:37.266Z,8.92
2018-12-23T03:37:37.272Z,8.87
2018-12-23T03:38:37.237Z,8.79
2018-12-23T03:39:37.225Z,8.87
2018-12-23T03:40:37.220Z,8.76
2018-12-23T03:41:37.206Z,8.71
2018-12-23T03:42:37.216Z,8.74
2018-12-23T03:43:37.179Z,8.77
2018-12-23T03:44:37.169Z,8.74
2018-12-23T03:45:37.160Z,8.76
2018-12-23T03:46:37.159Z,8.89
2018-12-23T03:47:37.161Z,8.87
2018-12-23T03:48:37.130Z,8.96
2018-12-23T03:49:37.127Z,8.86
2018-12-23T03:50:37.129Z,8.92
2018-12-23T03:51:37.095Z,8.98
2018-12-23T03:52:37.114Z,8.92
2018-12-23T03:53:37.078Z,9.01
2018-12-23T03:54:37.069Z,8.89
2018-12-23T03:55:37.053Z,8.86
2018-12-23T03:56:37.056Z,8.98
2018-12-23T03:57:37.037Z,9.02
2018-12-23T03:58:37.038Z,8.94
2018-12-23T03:59:37.010Z,8.98
2018-12-23T04:00:37.002Z,9.01
2018-12-23T04:01:37.069Z,8.92
2018-12-23T04:02:36.978Z,9.05
2018-12-23T04:03:36.985Z,8.87
2018-12-23T04:04:36.954Z,9.01
2018-12-23T04:05:36.943Z,8.99
2018-12-23T04:06:36.946Z,8.98
2018-12-23T04:07:36.932Z,8.96
2018-12-23T04:08:36.935Z,9.05
2018-12-23T04:09:36.903Z,9.08
2018-12-23T04:10:36.891Z,9.08
2018-12-23T04:11:36.889Z,9.10
2018-12-23T04:12:36.872Z,9.02
2018-12-23T04:13:36.894Z,9.04
2018-12-23T04:14:36.864Z,9.08
2018-12-23T04:15:36.859Z,9.08
2018-12-23T04:16:36.826Z,9.08
2018-12-23T04:17:36.816Z,9.04
2018-12-23T04:18:36.830Z,9.15
2018-12-23T04:19:36.799Z,9.04
2018-12-23T04:20:36.786Z,9.05
2018-12-23T04:21:36.784Z,9.05
2018-12-23T04:22:36.762Z,9.01
2018-12-23T04:23:36.769Z,9.01
2018-12-23T04:24:36.742Z,9.04
2018-12-23T04:25:36.733Z,9.10
2018-12-23T04:26:36.725Z,9.01
2018-12-23T04:27:36.708Z,8.98
2018-12-23T04:28:36.714Z,9.02
2018-12-23T04:29:36.687Z,9.01
2018-12-23T04:30:36.682Z,9.08
2018-12-23T04:31:36.672Z,9.14
2018-12-23T04:32:36.673Z,8.96
2018-12-23T04:33:36.678Z,9.01
2018-12-23T04:34:36.642Z,9.02
2018-12-23T04:35:36.622Z,9.05
2018-12-23T04:36:36.611Z,8.98
2018-12-23T04:37:36.602Z,8.99
2018-12-23T04:38:36.611Z,8.98
2018-12-23T04:39:36.587Z,8.91
2018-12-23T04:40:36.568Z,8.84
2018-12-23T04:41:36.559Z,8.89
2018-12-23T04:42:36.559Z,8.87
2018-12-23T04:43:36.558Z,8.83
2018-12-23T04:44:36.526Z,8.84
2018-12-23T04:45:36.519Z,8.83
2018-12-23T04:46:36.504Z,8.81
2018-12-23T04:47:36.493Z,8.80
2018-12-23T04:48:36.501Z,8.87
2018-12-23T04:49:36.474Z,8.77
2018-12-23T04:50:36.463Z,8.81
2018-12-23T04:51:36.451Z,8.84
2018-12-23T04:52:36.448Z,8.80
2018-12-23T04:53:36.448Z,8.76
2018-12-23T04:54:36.423Z,8.73
2018-12-23T04:55:36.408Z,8.86
2018-12-23T04:56:36.398Z,8.77
2018-12-23T04:57:36.390Z,8.76
2018-12-23T04:58:36.394Z,8.77
2018-12-23T04:59:36.375Z,8.70
2018-12-23T05:00:36.355Z,8.63
2018-12-23T05:01:36.355Z,8.71
2018-12-23T05:02:36.335Z,8.68
2018-12-23T05:03:42.639Z,8.65
2018-12-23T05:04:37.418Z,8.70
2018-12-23T05:05:36.301Z,8.66
2018-12-23T05:06:43.244Z,8.63
2018-12-23T05:07:37.292Z,8.73
2018-12-23T05:08:36.302Z,8.73
2018-12-23T05:09:36.256Z,8.61
2018-12-23T05:10:36.246Z,8.71
2018-12-23T05:11:36.238Z,8.63
2018-12-23T05:12:36.231Z,8.81
2018-12-23T05:13:36.232Z,8.62
2018-12-23T05:14:36.206Z,8.63
2018-12-23T05:15:36.197Z,8.61
2018-12-23T05:16:36.184Z,8.62
2018-12-23T05:17:36.179Z,8.56
2018-12-23T05:18:36.196Z,8.59
2018-12-23T05:19:36.150Z,8.66
2018-12-23T05:20:36.140Z,8.62
2018-12-23T05:21:36.127Z,8.61
2018-12-23T05:22:36.128Z,8.63
2018-12-23T05:23:36.106Z,8.66
2018-12-23T05:24:36.127Z,8.63
2018-12-23T05:25:36.100Z,8.58
2018-12-23T05:26:36.075Z,8.68
2018-12-23T05:27:36.067Z,8.65
2018-12-23T05:28:36.053Z,8.66
2018-12-23T05:29:36.060Z,8.59
2018-12-23T05:30:36.038Z,8.55
2018-12-23T05:31:36.047Z,8.56
2018-12-23T05:32:36.012Z,8.73
2018-12-23T05:33:35.999Z,8.74
2018-12-23T05:34:36.006Z,8.66
2018-12-23T05:35:35.982Z,8.63
2018-12-23T05:36:35.971Z,8.62
2018-12-23T05:37:35.960Z,8.61
2018-12-23T05:38:35.945Z,8.66
2018-12-23T05:39:35.963Z,8.73
2018-12-23T05:40:35.928Z,8.73
2018-12-23T05:41:35.917Z,8.62
2018-12-23T05:42:35.908Z,8.70
2018-12-23T05:43:35.891Z,8.70
2018-12-23T05:44:35.913Z,8.74
2018-12-23T05:45:35.878Z,8.70
2018-12-23T05:46:35.861Z,8.61
2018-12-23T05:47:35.850Z,8.68
2018-12-23T05:48:35.843Z,8.73
2018-12-23T05:49:35.848Z,8.70
2018-12-23T05:50:35.822Z,8.68
2018-12-23T05:51:35.811Z,8.74
2018-12-23T05:52:35.797Z,8.70
2018-12-23T05:53:35.796Z,8.74
2018-12-23T05:54:35.794Z,8.77
2018-12-23T05:55:35.767Z,8.80
2018-12-23T05:56:35.751Z,8.73
2018-12-23T05:57:35.743Z,8.74
2018-12-23T05:58:35.730Z,8.74
2018-12-23T05:59:35.763Z,8.62
2018-12-23T06:00:35.713Z,8.58
2018-12-23T06:01:35.699Z,8.58
2018-12-23T06:02:35.690Z,8.59
2018-12-23T06:03:35.678Z,8.59
2018-12-23T06:04:35.668Z,8.50
2018-12-23T06:05:35.687Z,8.59
2018-12-23T06:06:35.669Z,8.56
2018-12-23T06:07:35.638Z,8.59
2018-12-23T06:08:35.629Z,8.63
2018-12-23T06:09:35.620Z,8.58
2018-12-23T06:10:35.622Z,8.62
2018-12-23T06:11:35.595Z,8.58
2018-12-23T06:12:35.584Z,8.53
2018-12-23T06:13:35.571Z,8.58
2018-12-23T06:14:35.564Z,8.59
2018-12-23T06:15:35.572Z,8.55
2018-12-23T06:16:35.539Z,8.62
2018-12-23T06:17:35.528Z,8.59
2018-12-23T06:18:35.519Z,8.56
2018-12-23T06:19:35.515Z,8.50
2018-12-23T06:20:35.514Z,8.55
2018-12-23T06:21:35.484Z,8.50
2018-12-23T06:22:35.478Z,8.45
2018-12-23T06:23:35.464Z,8.52
2018-12-23T06:24:35.560Z,8.44
2018-12-23T06:25:35.460Z,8.41
2018-12-23T06:26:35.443Z,8.48
2018-12-23T06:27:35.421Z,8.48
2018-12-23T06:28:35.408Z,8.53
2018-12-23T06:29:35.421Z,8.53
2018-12-23T06:30:35.389Z,8.52
2018-12-23T06:31:35.395Z,8.53
2018-12-23T06:32:35.364Z,8.45
2018-12-23T06:33:35.366Z,8.48
2018-12-23T06:34:35.344Z,8.48
2018-12-23T06:35:35.341Z,8.52
2018-12-23T06:36:35.344Z,8.53
2018-12-23T06:37:35.315Z,8.50
2018-12-23T06:38:35.301Z,8.52
2018-12-23T06:39:35.293Z,8.58
2018-12-23T06:40:35.284Z,8.63
2018-12-23T06:41:35.301Z,8.59
2018-12-23T06:42:35.261Z,8.58
2018-12-23T06:43:35.252Z,8.59
2018-12-23T06:44:35.237Z,8.63
2018-12-23T06:45:35.235Z,8.58
2018-12-23T06:46:35.235Z,8.68
2018-12-23T06:47:35.208Z,8.65
2018-12-23T06:48:35.649Z,8.63
2018-12-23T06:49:35.184Z,8.71
2018-12-23T06:50:35.175Z,8.58
2018-12-23T06:51:35.181Z,8.63
2018-12-23T06:52:35.162Z,8.71
2018-12-23T06:53:35.142Z,8.71
2018-12-23T06:54:35.130Z,8.77
2018-12-23T06:55:35.123Z,8.80
2018-12-23T06:56:35.141Z,8.80
2018-12-23T06:57:35.098Z,8.79
2018-12-23T06:58:35.087Z,8.74
2018-12-23T06:59:35.091Z,8.71
2018-12-23T07:00:35.065Z,8.73
2018-12-23T07:01:35.077Z,8.73
2018-12-23T07:02:35.044Z,8.77
2018-12-23T07:03:35.034Z,8.79
2018-12-23T07:04:35.024Z,8.86
2018-12-23T07:05:35.014Z,8.91
2018-12-23T07:06:35.029Z,8.86
2018-12-23T07:07:34.991Z,8.86
2018-12-23T07:08:34.983Z,8.86
2018-12-23T07:09:34.974Z,8.92
2018-12-23T07:10:34.961Z,8.86
2018-12-23T07:11:34.947Z,8.89
2018-12-23T07:12:34.961Z,8.86
2018-12-23T07:13:34.931Z,8.89
2018-12-23T07:14:34.938Z,8.86
2018-12-23T07:15:34.908Z,8.83
2018-12-23T07:16:34.894Z,8.81
2018-12-23T07:17:34.904Z,8.91
2018-12-23T07:18:34.887Z,8.87
2018-12-23T07:19:34.864Z,8.87
2018-12-23T07:20:34.863Z,8.95
2018-12-23T07:21:34.845Z,8.95
2018-12-23T07:22:34.851Z,8.89
2018-12-23T07:23:34.833Z,8.81
2018-12-23T07:24:34.808Z,8.89
2018-12-23T07:25:34.800Z,8.98
2018-12-23T07:26:34.785Z,8.95
2018-12-23T07:27:34.794Z,8.89
2018-12-23T07:28:34.768Z,8.98
2018-12-23T07:29:34.754Z,8.94
2018-12-23T07:30:34.743Z,8.95
2018-12-23T07:31:34.737Z,9.01
2018-12-23T07:32:34.742Z,8.94
2018-12-23T07:33:34.712Z,8.96
2018-12-23T07:34:34.701Z,8.95
2018-12-23T07:35:34.688Z,8.92
2018-12-23T07:36:34.688Z,9.05
2018-12-23T07:37:34.745Z,8.95
2018-12-23T07:38:34.656Z,8.96
2018-12-23T07:39:34.654Z,8.99
2018-12-23T07:40:34.642Z,9.05
2018-12-23T07:41:34.630Z,9.05
2018-12-23T07:42:34.633Z,9.08
2018-12-23T07:43:34.623Z,9.08
2018-12-23T07:44:34.619Z,9.15
2018-12-23T07:45:34.583Z,9.13
2018-12-23T07:46:34.580Z,9.18
2018-12-23T07:47:34.576Z,9.15
2018-12-23T07:48:34.866Z,9.14
2018-12-23T07:49:34.551Z,9.14
2018-12-23T07:50:34.653Z,9.15
2018-12-23T07:51:34.645Z,9.21
2018-12-23T07:52:34.506Z,9.20
2018-12-23T07:53:34.523Z,9.21
2018-12-23T07:54:34.510Z,9.20
2018-12-23T07:55:34.475Z,9.18
2018-12-23T07:56:34.489Z,9.26
2018-12-23T07:57:34.473Z,9.20
2018-12-23T07:58:34.462Z,9.20
2018-12-23T07:59:34.437Z,9.33
2018-12-23T08:00:34.449Z,9.31
2018-12-23T08:01:34.414Z,9.31
2018-12-23T08:02:34.399Z,9.29
2018-12-23T08:03:34.408Z,9.31
2018-12-23T08:04:34.406Z,9.36
2018-12-23T08:05:34.369Z,9.32
2018-12-23T08:06:34.367Z,9.38
2018-12-23T08:07:36.237Z,9.39
2018-12-23T08:08:34.423Z,9.38
2018-12-23T08:09:34.323Z,9.39
2018-12-23T08:10:34.327Z,9.33
2018-12-23T08:11:34.311Z,9.36
2018-12-23T08:12:34.291Z,9.46
2018-12-23T08:13:34.319Z,9.40
2018-12-23T08:14:34.315Z,9.42
2018-12-23T08:15:34.259Z,9.33
2018-12-23T08:16:34.265Z,9.29
2018-12-23T08:17:34.248Z,9.40
2018-12-23T08:18:34.245Z,9.33
2018-12-23T08:19:34.237Z,9.42
2018-12-23T08:20:34.207Z,9.46
2018-12-23T08:21:34.199Z,9.42
2018-12-23T08:22:34.196Z,9.43
2018-12-23T08:23:34.173Z,9.42
2018-12-23T08:24:34.194Z,9.47
2018-12-23T08:25:35.657Z,9.56
2018-12-23T08:26:34.142Z,9.51
2018-12-23T08:27:34.131Z,9.64
2018-12-23T08:28:34.119Z,9.54
2018-12-23T08:29:34.135Z,9.58
2018-12-23T08:30:34.127Z,9.60
2018-12-23T08:31:34.110Z,9.56
2018-12-23T08:32:34.079Z,9.61
2018-12-23T08:33:34.067Z,9.68
2018-12-23T08:34:34.077Z,9.66
2018-12-23T08:35:34.146Z,9.71
2018-12-23T08:36:34.041Z,9.61
2018-12-23T08:37:34.022Z,9.75
2018-12-23T08:38:34.034Z,9.72
2018-12-23T08:39:34.020Z,9.74
2018-12-23T08:40:33.991Z,9.81
2018-12-23T08:41:34.026Z,9.75
2018-12-23T08:42:33.971Z,9.83
2018-12-23T08:43:33.963Z,9.75
2018-12-23T08:44:33.969Z,9.81
2018-12-23T08:45:33.937Z,9.78
2018-12-23T08:46:39.121Z,9.78
2018-12-23T08:47:34.916Z,9.74
2018-12-23T08:48:33.905Z,9.75
2018-12-23T08:49:33.920Z,9.74
2018-12-23T08:50:33.902Z,9.71
2018-12-23T08:51:33.880Z,9.75
2018-12-23T08:52:33.886Z,9.76
2018-12-23T08:53:33.851Z,9.86
2018-12-23T08:54:33.981Z,9.79
2018-12-23T08:55:33.831Z,9.79
2018-12-23T08:56:33.819Z,9.79
2018-12-23T08:57:35.396Z,9.74
2018-12-23T08:58:33.801Z,9.81
2018-12-23T08:59:33.789Z,9.83
2018-12-23T09:00:33.795Z,9.76
2018-12-23T09:01:33.767Z,9.68
2018-12-23T09:02:33.753Z,9.65
2018-12-23T09:03:33.759Z,9.54
2018-12-23T09:04:33.731Z,9.51
2018-12-23T09:05:33.738Z,9.64
2018-12-23T09:06:33.712Z,9.53
2018-12-23T09:07:33.699Z,9.60
2018-12-23T09:08:33.689Z,9.58
2018-12-23T09:09:33.687Z,9.40
2018-12-23T09:10:33.686Z,9.51
2018-12-23T09:11:33.655Z,9.50
2018-12-23T09:12:33.650Z,9.43
2018-12-23T09:13:33.635Z,9.46
2018-12-23T09:14:33.624Z,9.35
2018-12-23T09:15:33.642Z,9.29
2018-12-23T09:16:33.606Z,9.35
2018-12-23T09:17:33.589Z,9.36
2018-12-23T09:18:33.584Z,9.29
2018-12-23T09:19:33.570Z,9.40
2018-12-23T09:20:33.575Z,9.33
2018-12-23T09:21:33.554Z,9.42
2018-12-23T09:22:33.652Z,9.46
2018-12-23T09:23:33.524Z,9.36
2018-12-23T09:24:33.519Z,9.43
2018-12-23T09:25:33.528Z,9.42
2018-12-23T09:26:33.494Z,9.56
2018-12-23T09:27:33.490Z,9.57
2018-12-23T09:28:33.475Z,9.54
2018-12-23T09:29:33.462Z,9.53
2018-12-23T09:30:33.468Z,9.50
2018-12-23T09:31:33.440Z,9.31
2018-12-23T09:32:33.430Z,9.36
2018-12-23T09:33:33.428Z,9.38
2018-12-23T09:34:33.407Z,9.42
2018-12-23T09:35:33.416Z,9.48
2018-12-23T09:36:33.389Z,9.47
2018-12-23T09:37:33.379Z,9.40
2018-12-23T09:38:33.363Z,9.48
2018-12-23T09:39:33.360Z,9.46
2018-12-23T09:40:33.361Z,9.57
2018-12-23T09:41:33.331Z,9.61
2018-12-23T09:42:33.324Z,9.46
2018-12-23T09:43:33.309Z,9.46
2018-12-23T09:44:33.307Z,9.46
2018-12-23T09:45:33.305Z,9.46
2018-12-23T09:46:33.279Z,9.48
2018-12-23T09:47:33.266Z,9.50
2018-12-23T09:48:33.262Z,9.46
2018-12-23T09:49:33.248Z,9.42
2018-12-23T09:50:33.259Z,9.46
2018-12-23T09:51:33.231Z,9.39
2018-12-23T09:52:33.219Z,9.60
2018-12-23T09:53:33.202Z,9.58
2018-12-23T09:54:33.193Z,9.53
2018-12-23T09:55:33.199Z,9.54
2018-12-23T09:56:33.169Z,9.60
2018-12-23T09:57:33.160Z,9.56
2018-12-23T09:58:33.150Z,9.53
2018-12-23T09:59:33.136Z,9.42
2018-12-23T10:00:33.142Z,9.42
2018-12-23T10:01:33.114Z,9.40
2018-12-23T10:02:33.548Z,9.46
2018-12-23T10:03:33.094Z,9.47
2018-12-23T10:04:33.086Z,9.53
2018-12-23T10:05:33.092Z,9.40
2018-12-23T10:06:33.073Z,9.43
2018-12-23T10:07:33.051Z,9.43
2018-12-23T10:08:33.041Z,9.42
2018-12-23T10:09:33.029Z,9.43
2018-12-23T10:10:33.045Z,9.42
2018-12-23T10:11:33.009Z,9.42
2018-12-23T10:12:33.010Z,9.51
2018-12-23T10:13:32.995Z,9.48
2018-12-23T10:14:32.974Z,9.47
2018-12-23T10:15:32.981Z,9.46
2018-12-23T10:16:32.952Z,9.51
2018-12-23T10:17:32.940Z,9.54
2018-12-23T10:18:32.930Z,9.47
2018-12-23T10:19:32.927Z,9.56
2018-12-23T10:20:32.950Z,9.51
2018-12-23T10:21:32.910Z,9.60
2018-12-23T10:22:32.886Z,9.61
2018-12-23T10:23:32.877Z,9.57
2018-12-23T10:24:32.877Z,9.64
2018-12-23T10:25:32.884Z,9.65
2018-12-23T10:26:32.844Z,9.65
2018-12-23T10:27:32.840Z,9.65
2018-12-23T10:28:32.821Z,9.66
2018-12-23T10:29:32.814Z,9.64
2018-12-23T10:30:32.826Z,9.69
2018-12-23T10:31:32.794Z,9.64
2018-12-23T10:32:32.776Z,9.53
2018-12-23T10:33:32.769Z,9.64
2018-12-23T10:34:33.262Z,9.65
2018-12-23T10:35:32.884Z,9.68
2018-12-23T10:36:32.735Z,9.65
2018-12-23T10:37:32.731Z,9.64
2018-12-23T10:38:32.711Z,9.66
2018-12-23T10:39:32.699Z,9.57
2018-12-23T10:40:32.709Z,9.53
2018-12-23T10:41:32.679Z,9.61
2018-12-23T10:42:32.670Z,9.51
2018-12-23T10:43:32.663Z,9.65
2018-12-23T10:44:32.658Z,9.72
2018-12-23T10:45:32.661Z,9.74
2018-12-23T10:46:32.630Z,9.61
2018-12-23T10:47:32.613Z,9.66
2018-12-23T10:48:32.611Z,9.68
2018-12-23T10:49:32.591Z,9.76
2018-12-23T10:50:32.599Z,9.72
2018-12-23T10:51:32.584Z,9.78
2018-12-23T10:52:32.562Z,9.69
2018-12-23T10:53:32.554Z,9.71
2018-12-23T10:54:32.537Z,9.69
2018-12-23T10:55:32.589Z,9.72
2018-12-23T10:56:32.516Z,9.68
2018-12-23T10:57:32.504Z,9.74
2018-12-23T10:58:32.511Z,9.75
2018-12-23T10:59:32.484Z,9.66
2018-12-23T11:00:32.475Z,9.74
2018-12-23T11:01:32.475Z,9.68
2018-12-23T11:02:32.449Z,9.79
2018-12-23T11:03:32.440Z,9.75
2018-12-23T11:04:32.427Z,9.61
2018-12-23T11:05:32.417Z,9.76
2018-12-23T11:06:32.425Z,9.84
2018-12-23T11:07:32.398Z,9.75
2018-12-23T11:08:32.439Z,9.84
2018-12-23T11:09:32.370Z,9.76
2018-12-23T11:10:32.361Z,9.79
2018-12-23T11:11:32.367Z,9.87
2018-12-23T11:12:32.348Z,9.90
2018-12-23T11:13:32.329Z,9.87
2018-12-23T11:14:32.317Z,9.93
2018-12-23T11:15:32.305Z,9.87
2018-12-23T11:16:32.313Z,9.89
2018-12-23T11:17:32.290Z,9.89
2018-12-23T11:18:32.292Z,9.90
2018-12-23T11:19:32.266Z,9.79
2018-12-23T11:20:32.253Z,9.79
2018-12-23T11:21:32.261Z,9.90
2018-12-23T11:22:32.267Z,9.79
2018-12-23T11:23:32.219Z,9.87
2018-12-23T11:24:32.215Z,9.90
2018-12-23T11:25:32.197Z,9.84
2018-12-23T11:26:32.205Z,9.89
2018-12-23T11:27:32.179Z,9.84
2018-12-23T11:28:32.165Z,9.81
2018-12-23T11:29:32.160Z,9.81
2018-12-23T11:30:32.157Z,9.75
2018-12-23T11:31:32.152Z,9.78
2018-12-23T11:32:32.121Z,9.84
2018-12-23T11:33:32.111Z,9.76
2018-12-23T11:34:32.102Z,9.76
2018-12-23T11:35:32.094Z,9.81
2018-12-23T11:36:32.129Z,9.79
2018-12-23T11:37:32.070Z,9.84
2018-12-23T11:38:35.642Z,9.86
2018-12-23T11:39:32.051Z,9.86
2018-12-23T11:40:32.039Z,9.83
2018-12-23T11:41:32.046Z,9.84
2018-12-23T11:42:32.016Z,9.78
2018-12-23T11:43:32.006Z,9.79
2018-12-23T11:44:32.007Z,9.86
2018-12-23T11:45:31.982Z,9.78
2018-12-23T11:46:31.994Z,9.79
2018-12-23T11:47:31.970Z,9.76
2018-12-23T11:48:32.840Z,9.74
2018-12-23T11:49:31.944Z,9.84
2018-12-23T11:50:31.952Z,9.81
2018-12-23T11:51:31.940Z,9.72
2018-12-23T11:52:31.907Z,9.86
2018-12-23T11:53:31.898Z,9.86
2018-12-23T11:54:31.886Z,9.86
2018-12-23T11:55:31.875Z,9.86
2018-12-23T11:56:31.886Z,9.78
2018-12-23T11:57:31.859Z,9.69
2018-12-23T11:58:31.850Z,9.74
2018-12-23T11:59:31.835Z,9.75
2018-12-23T12:00:31.821Z,9.75
2018-12-23T12:01:31.831Z,9.66
2018-12-23T12:02:31.799Z,9.74
2018-12-23T12:03:31.788Z,9.83
2018-12-23T12:04:31.786Z,9.86
2018-12-23T12:05:31.766Z,9.81
2018-12-23T12:06:31.804Z,9.81
2018-12-23T12:07:31.744Z,9.86
2018-12-23T12:08:31.734Z,9.93
2018-12-23T12:09:31.722Z,9.90
2018-12-23T12:10:31.710Z,9.91
2018-12-23T12:11:31.733Z,9.91
2018-12-23T12:12:31.691Z,9.90
2018-12-23T12:13:31.680Z,9.91
2018-12-23T12:14:31.669Z,9.83
2018-12-23T12:15:31.656Z,9.89
2018-12-23T12:16:31.673Z,9.87
2018-12-23T12:17:31.655Z,9.89
2018-12-23T12:18:31.634Z,9.89
2018-12-23T12:19:31.630Z,9.86
2018-12-23T12:20:31.605Z,9.90
2018-12-23T12:21:31.614Z,9.86
2018-12-23T12:22:31.581Z,9.87
2018-12-23T12:23:31.582Z,9.87
2018-12-23T12:24:31.567Z,9.91
2018-12-23T12:25:31.573Z,9.93
2018-12-23T12:26:31.558Z,9.87
2018-12-23T12:27:31.530Z,9.97
2018-12-23T12:28:31.551Z,9.91
2018-12-23T12:29:31.515Z,9.90
2018-12-23T12:30:31.495Z,9.90
2018-12-23T12:31:31.510Z,9.89
2018-12-23T12:32:31.488Z,9.94
2018-12-23T12:33:31.478Z,9.89
2018-12-23T12:34:31.453Z,9.86
2018-12-23T12:35:31.465Z,9.90
2018-12-23T12:36:31.456Z,9.91
2018-12-23T12:37:31.422Z,9.79
2018-12-23T12:38:31.416Z,9.84
2018-12-23T12:39:31.407Z,9.89
2018-12-23T12:40:31.388Z,9.86
2018-12-23T12:41:31.446Z,9.89
2018-12-23T12:42:31.367Z,9.91
2018-12-23T12:43:31.356Z,9.81
2018-12-23T12:44:31.352Z,9.89
2018-12-23T12:45:31.343Z,9.72
2018-12-23T12:46:31.322Z,9.81
2018-12-23T12:47:31.339Z,9.72
2018-12-23T12:48:31.305Z,9.78
2018-12-23T12:49:31.289Z,9.72
2018-12-23T12:50:31.286Z,9.71
2018-12-23T12:51:31.267Z,9.69
2018-12-23T12:52:31.278Z,9.64
2018-12-23T12:53:31.247Z,9.51
2018-12-23T12:54:31.244Z,9.54
2018-12-23T12:55:31.222Z,9.51
2018-12-23T12:56:31.211Z,9.56
2018-12-23T12:57:31.226Z,9.56
2018-12-23T12:58:31.189Z,9.60
2018-12-23T12:59:31.180Z,9.57
2018-12-23T13:00:31.173Z,9.50
2018-12-23T13:01:31.157Z,9.43
2018-12-23T13:02:31.165Z,9.48
2018-12-23T13:03:31.138Z,9.47
2018-12-23T13:04:31.124Z,9.39
2018-12-23T13:05:31.111Z,9.32
2018-12-23T13:06:31.101Z,9.38
2018-12-23T13:07:31.108Z,9.32
2018-12-23T13:08:31.080Z,9.46
2018-12-23T13:09:32.326Z,9.47
2018-12-23T13:10:31.058Z,9.40
2018-12-23T13:11:31.048Z,9.47
2018-12-23T13:12:31.058Z,9.36
2018-12-23T13:13:31.028Z,9.46
2018-12-23T13:14:31.015Z,9.33
2018-12-23T13:15:31.013Z,9.32
2018-12-23T13:16:30.996Z,9.26
2018-12-23T13:17:31.001Z,9.18
2018-12-23T13:18:30.972Z,9.20
2018-12-23T13:19:30.959Z,9.18
2018-12-23T13:20:30.950Z,9.21
2018-12-23T13:21:30.951Z,9.18
2018-12-23T13:22:30.945Z,9.24
2018-12-23T13:23:30.918Z,9.35
2018-12-23T13:24:30.905Z,9.26
2018-12-23T13:25:30.895Z,9.29
2018-12-23T13:26:30.883Z,9.33
2018-12-23T13:27:30.897Z,9.18
2018-12-23T13:28:30.863Z,9.21
2018-12-23T13:29:30.854Z,9.20
2018-12-23T13:30:30.845Z,9.20
2018-12-23T13:31:30.831Z,9.24
2018-12-23T13:32:30.840Z,9.26
2018-12-23T13:33:30.822Z,9.20
2018-12-23T13:34:30.798Z,9.23
2018-12-23T13:35:30.897Z,9.11
2018-12-23T13:36:30.780Z,9.08
2018-12-23T13:37:30.785Z,9.04
2018-12-23T13:38:30.755Z,8.96
2018-12-23T13:39:30.745Z,9.05
2018-12-23T13:40:30.747Z,8.96
2018-12-23T13:41:30.723Z,8.99
2018-12-23T13:42:30.731Z,8.95
2018-12-23T13:43:30.702Z,8.91
2018-12-23T13:44:30.690Z,8.86
2018-12-23T13:45:30.682Z,8.96
2018-12-23T13:46:30.680Z,8.89
2018-12-23T13:47:30.680Z,8.91
2018-12-23T13:48:30.649Z,8.87
2018-12-23T13:49:30.637Z,8.89
2018-12-23T13:50:30.626Z,8.91
2018-12-23T13:51:30.616Z,8.95
2018-12-23T13:52:30.664Z,8.94
2018-12-23T13:53:30.594Z,9.02
2018-12-23T13:54:30.582Z,8.98
2018-12-23T13:55:30.572Z,8.92
2018-12-23T13:56:30.563Z,8.99
2018-12-23T13:57:30.863Z,8.87
2018-12-23T13:58:30.541Z,8.91
2018-12-23T13:59:30.534Z,8.91
2018-12-23T14:00:30.520Z,8.81
2018-12-23T14:01:30.508Z,8.84
2018-12-23T14:02:30.513Z,8.87
2018-12-23T14:03:30.505Z,8.86
2018-12-23T14:04:30.499Z,8.84
2018-12-23T14:05:30.466Z,8.84
2018-12-23T14:06:30.453Z,8.89
2018-12-23T14:07:30.486Z,8.84
2018-12-23T14:08:30.453Z,8.83
2018-12-23T14:09:30.421Z,8.86
2018-12-23T14:10:30.415Z,8.83
2018-12-23T14:11:30.412Z,8.83
2018-12-23T14:12:30.390Z,8.81
2018-12-23T14:13:30.397Z,8.83
2018-12-23T14:14:30.368Z,8.84
2018-12-23T14:15:30.362Z,8.92
2018-12-23T14:16:30.346Z,8.81
2018-12-23T14:17:30.356Z,8.84
2018-12-23T14:18:30.343Z,8.91
2018-12-23T14:19:30.314Z,8.86
2018-12-23T14:20:30.303Z,8.70
2018-12-23T14:21:30.292Z,8.84
2018-12-23T14:22:30.283Z,8.71
2018-12-23T14:23:30.307Z,8.74
2018-12-23T14:24:31.290Z,8.79
2018-12-23T14:25:30.250Z,8.77
2018-12-23T14:26:30.259Z,8.71
2018-12-23T14:27:30.228Z,8.80
2018-12-23T14:28:30.217Z,8.73
2018-12-23T14:29:30.240Z,8.77
2018-12-23T14:30:30.195Z,8.76
2018-12-23T14:31:30.193Z,8.73
2018-12-23T14:32:30.175Z,8.73
2018-12-23T14:33:30.166Z,8.73
2018-12-23T14:34:30.170Z,8.63
2018-12-23T14:35:32.134Z,8.65
2018-12-23T14:36:30.132Z,8.74
2018-12-23T14:37:30.121Z,8.77
2018-12-23T14:38:30.109Z,8.68
2018-12-23T14:39:30.119Z,8.73
2018-12-23T14:40:30.094Z,8.81
2018-12-23T14:41:30.087Z,8.71
2018-12-23T14:42:30.067Z,8.76
2018-12-23T14:43:30.057Z,8.76
2018-12-23T14:44:30.063Z,8.74
2018-12-23T14:45:30.035Z,8.73
2018-12-23T14:46:30.026Z,8.71
2018-12-23T14:47:30.021Z,8.74
2018-12-23T14:48:30.004Z,8.71
2018-12-23T14:49:30.012Z,8.70
2018-12-23T14:50:29.981Z,8.76
2018-12-23T14:51:29.969Z,8.77
2018-12-23T14:52:29.962Z,8.70
2018-12-23T14:53:29.967Z,8.65
2018-12-23T14:54:29.957Z,8.63
2018-12-23T14:55:29.928Z,8.76
2018-12-23T14:56:29.962Z,8.79
2018-12-23T14:57:30.862Z,8.77
2018-12-23T14:58:29.900Z,8.77
2018-12-23T14:59:29.925Z,8.63
2018-12-23T15:00:29.877Z,8.68
2018-12-23T15:01:29.864Z,8.66
2018-12-23T15:02:29.853Z,8.66
2018-12-23T15:03:29.843Z,8.63
2018-12-23T15:04:29.849Z,8.55
2018-12-23T15:05:29.828Z,8.66
2018-12-23T15:06:29.811Z,8.65
2018-12-23T15:07:29.803Z,8.66
2018-12-23T15:08:29.791Z,8.62
2018-12-23T15:09:34.192Z,8.65
2018-12-23T15:10:29.770Z,8.65
2018-12-23T15:11:29.774Z,8.63
2018-12-23T15:12:29.757Z,8.62
2018-12-23T15:13:29.735Z,8.59
2018-12-23T15:14:29.748Z,8.59
2018-12-23T15:15:29.713Z,8.62
2018-12-23T15:16:29.734Z,8.61
2018-12-23T15:17:29.695Z,8.63
2018-12-23T15:18:29.690Z,8.58
2018-12-23T15:19:29.673Z,8.55
2018-12-23T15:20:29.691Z,8.58
2018-12-23T15:21:29.655Z,8.55
2018-12-23T15:22:29.644Z,8.47
2018-12-23T15:23:29.630Z,8.47
2018-12-23T15:24:29.628Z,8.47
2018-12-23T15:25:29.643Z,8.55
2018-12-23T15:26:29.603Z,8.50
2018-12-23T15:27:29.621Z,8.48
2018-12-23T15:28:29.575Z,8.45
2018-12-23T15:29:29.571Z,8.43
2018-12-23T15:30:29.610Z,8.50
2018-12-23T15:31:29.544Z,8.50
2018-12-23T15:32:29.544Z,8.56
2018-12-23T15:33:29.529Z,8.52
2018-12-23T15:34:29.518Z,8.40
2018-12-23T15:35:29.529Z,8.45
2018-12-23T15:36:29.490Z,8.50
2018-12-23T15:37:29.479Z,8.47
2018-12-23T15:38:29.647Z,8.43
2018-12-23T15:39:29.468Z,8.47
2018-12-23T15:40:29.471Z,8.37
2018-12-23T15:41:29.442Z,8.41
2018-12-23T15:42:29.432Z,8.43
2018-12-23T15:43:29.418Z,8.40
2018-12-23T15:44:29.404Z,8.40
2018-12-23T15:45:29.451Z,8.38
2018-12-23T15:46:29.391Z,8.37
2018-12-23T15:47:29.375Z,8.37
2018-12-23T15:48:29.367Z,8.38
2018-12-23T15:49:29.351Z,8.34
2018-12-23T15:50:29.343Z,8.38
2018-12-23T15:51:29.348Z,8.33
2018-12-23T15:52:29.321Z,8.36
2018-12-23T15:53:29.326Z,8.36
2018-12-23T15:54:29.306Z,8.36
2018-12-23T15:55:29.292Z,8.33
2018-12-23T15:56:29.303Z,8.34
2018-12-23T15:57:29.268Z,8.37
2018-12-23T15:58:29.257Z,8.36
2018-12-23T15:59:29.248Z,8.41
2018-12-23T16:00:29.245Z,8.37
2018-12-23T16:01:29.249Z,8.36
2018-12-23T16:02:29.215Z,8.40
2018-12-23T16:03:29.206Z,8.43
2018-12-23T16:04:29.192Z,8.40